createdAt,value
2023-05-16T00:02:10.820Z,71.02
2023-05-16T00:07:13.468Z,71.55
2023-05-16T00:12:17.945Z,71.97
2023-05-16T00:17:21.163Z,71.57
2023-05-16T00:22:24.807Z,72.53
2023-05-16T00:27:27.592Z,72.68
2023-05-16T00:32:30.423Z,72.82
2023-05-16T00:37:33.199Z,74.13
2023-05-16T00:42:36.136Z,72.96
2023-05-16T00:47:40.556Z,72.70
2023-05-16T00:52:43.383Z,73.97
2023-05-16T00:57:46.290Z,74.48
2023-05-16T01:02:52.081Z,74.17
2023-05-16T01:07:55.542Z,73.63
2023-05-16T01:13:12.880Z,73.32
2023-05-16T01:18:31.003Z,74.24
2023-05-16T01:23:51.953Z,74.30
2023-05-16T01:28:55.548Z,75.07
2023-05-16T01:33:58.234Z,72.60
2023-05-16T01:39:27.919Z,70.14
2023-05-16T01:45:07.746Z,66.07
2023-05-16T01:50:20.709Z,61.73
2023-05-16T01:55:56.260Z,57.19
2023-05-16T02:01:08.353Z,53.46
2023-05-16T02:06:13.001Z,51.03
2023-05-16T02:11:15.880Z,47.53
2023-05-16T02:16:19.723Z,44.35
2023-05-16T02:21:22.508Z,42.23
2023-05-16T02:26:25.262Z,40.01
2023-05-16T02:31:33.532Z,37.76
2023-05-16T02:36:37.154Z,35.27
2023-05-16T02:41:40.009Z,32.73
2023-05-16T02:46:44.659Z,31.20
2023-05-16T02:51:48.164Z,30.65
2023-05-16T02:56:51.036Z,28.95
2023-05-16T03:01:55.504Z,31.89
2023-05-16T03:06:58.386Z,35.34
2023-05-16T03:12:03.818Z,37.69
2023-05-16T03:17:06.649Z,39.02
2023-05-16T03:22:09.304Z,40.62
2023-05-16T03:27:15.008Z,41.11
2023-05-16T03:32:19.857Z,41.09
2023-05-16T03:37:22.649Z,41.78
2023-05-16T03:42:25.330Z,42.48
2023-05-16T03:47:31.398Z,42.18
2023-05-16T03:52:34.799Z,41.39
2023-05-16T03:57:41.414Z,41.00
2023-05-16T04:02:44.344Z,41.78
2023-05-16T04:07:47.172Z,41.82
2023-05-16T04:12:49.912Z,41.26
2023-05-16T04:17:52.718Z,41.52
2023-05-16T04:22:55.730Z,40.75
2023-05-16T04:27:58.486Z,40.40
2023-05-16T04:33:01.564Z,39.89
2023-05-16T04:38:04.869Z,39.37
2023-05-16T04:43:08.365Z,39.44
2023-05-16T04:48:12.257Z,39.79
2023-05-16T04:53:15.254Z,39.31
2023-05-16T04:58:18.075Z,38.53
2023-05-16T05:03:21.251Z,38.03
2023-05-16T05:08:24.050Z,36.88
2023-05-16T05:13:26.705Z,35.97
2023-05-16T05:18:29.736Z,35.75
2023-05-16T05:23:33.088Z,35.80
2023-05-16T05:28:36.902Z,35.03
2023-05-16T05:33:39.669Z,34.05
2023-05-16T05:38:42.377Z,34.27
2023-05-16T05:43:45.084Z,33.64
2023-05-16T05:48:47.738Z,32.80
2023-05-16T05:53:50.651Z,32.16
2023-05-16T05:58:53.325Z,32.13
2023-05-16T06:03:59.276Z,31.59
2023-05-16T06:09:03.806Z,32.16
2023-05-16T06:14:06.500Z,32.26
2023-05-16T06:19:10.304Z,32.03
2023-05-16T06:24:13.145Z,31.85
2023-05-16T06:29:16.684Z,31.87
2023-05-16T06:34:19.428Z,32.22
2023-05-16T06:39:22.205Z,31.65
2023-05-16T06:44:24.936Z,31.95
2023-05-16T06:49:27.659Z,31.41
2023-05-16T06:54:30.314Z,30.99
2023-05-16T06:59:33.046Z,30.88
2023-05-16T07:04:38.430Z,30.85
2023-05-16T07:09:41.277Z,30.57
2023-05-16T07:14:44.072Z,29.57
2023-05-16T07:19:47.314Z,29.79
2023-05-16T07:24:50.128Z,29.59
2023-05-16T07:29:52.851Z,28.49
2023-05-16T07:34:55.670Z,28.46
2023-05-16T07:39:58.397Z,28.83
2023-05-16T07:45:02.281Z,28.75
2023-05-16T07:50:08.109Z,28.24
2023-05-16T07:55:11.115Z,27.91
2023-05-16T08:00:14.848Z,27.58
2023-05-16T08:05:17.956Z,27.15
2023-05-16T08:10:20.641Z,27.67
2023-05-16T08:15:23.448Z,27.81
2023-05-16T08:20:26.610Z,26.17
2023-05-16T08:25:29.954Z,25.88
2023-05-16T08:30:32.859Z,27.11
2023-05-16T08:35:35.770Z,26.36
2023-05-16T08:40:39.989Z,25.96
2023-05-16T08:45:42.888Z,26.04
2023-05-16T08:50:45.805Z,25.37
2023-05-16T08:55:50.284Z,25.88
2023-05-16T09:00:53.104Z,25.52
2023-05-16T09:05:56.655Z,25.15
2023-05-16T09:10:59.730Z,25.11
2023-05-16T09:16:13.734Z,25.30
2023-05-16T09:21:17.105Z,25.74
2023-05-16T09:26:19.974Z,25.51
2023-05-16T09:31:27.787Z,25.77
2023-05-16T09:36:35.638Z,26.32
2023-05-16T09:41:38.694Z,25.39
2023-05-16T09:46:41.759Z,24.88
2023-05-16T09:51:44.607Z,24.99
2023-05-16T09:56:51.681Z,25.51
2023-05-16T10:01:55.175Z,25.39
2023-05-16T10:07:02.137Z,25.37
2023-05-16T10:12:09.200Z,25.49
2023-05-16T10:17:14.509Z,25.65
2023-05-16T10:22:18.101Z,26.66
2023-05-16T10:27:21.323Z,25.95
2023-05-16T10:32:25.569Z,26.60
2023-05-16T10:37:29.962Z,26.10
2023-05-16T10:42:33.855Z,26.58
2023-05-16T10:47:36.805Z,26.35
2023-05-16T10:52:39.439Z,26.30
2023-05-16T10:57:45.120Z,26.05
2023-05-16T11:02:48.180Z,26.07
2023-05-16T11:08:09.234Z,25.54
2023-05-16T11:13:12.159Z,25.60
2023-05-16T11:18:16.481Z,25.98
2023-05-16T11:23:24.141Z,25.61
2023-05-16T11:28:28.280Z,25.45
2023-05-16T11:33:35.741Z,25.58
2023-05-16T11:38:43.483Z,25.54
2023-05-16T11:43:46.509Z,25.70
2023-05-16T11:48:49.267Z,25.26
2023-05-16T11:53:52.303Z,25.79
2023-05-16T11:58:55.268Z,26.38
2023-05-16T12:03:58.434Z,26.05
2023-05-16T12:09:04.300Z,26.32
2023-05-16T12:14:09.768Z,26.87
2023-05-16T12:19:13.027Z,26.10
2023-05-16T12:24:16.933Z,26.39
2023-05-16T12:29:21.976Z,26.91
2023-05-16T12:34:28.720Z,26.57
2023-05-16T12:39:38.273Z,26.76
2023-05-16T12:44:45.765Z,26.47
2023-05-16T12:49:51.413Z,26.62
2023-05-16T12:54:54.234Z,27.00
2023-05-16T12:59:57.272Z,26.88
2023-05-16T13:04:59.898Z,26.73
2023-05-16T13:10:03.133Z,27.30
2023-05-16T13:15:11.949Z,26.96
2023-05-16T13:20:15.374Z,27.39
2023-05-16T13:25:18.374Z,26.79
2023-05-16T13:30:22.960Z,27.24
2023-05-16T13:35:26.768Z,27.23
2023-05-16T13:40:29.912Z,26.98
2023-05-16T13:45:32.618Z,27.54
2023-05-16T13:50:35.785Z,27.90
2023-05-16T13:55:38.798Z,27.81
2023-05-16T14:00:45.703Z,27.51
2023-05-16T14:05:49.807Z,27.59
2023-05-16T14:10:52.646Z,27.69
2023-05-16T14:15:55.676Z,28.27
2023-05-16T14:20:58.505Z,28.10
2023-05-16T14:26:01.261Z,28.28
2023-05-16T14:31:04.366Z,28.28
2023-05-16T14:36:08.887Z,28.53
2023-05-16T14:41:14.858Z,28.93
2023-05-16T14:46:17.702Z,28.87
2023-05-16T14:51:20.848Z,28.97
2023-05-16T14:56:23.726Z,29.33
2023-05-16T15:01:26.826Z,29.34
2023-05-16T15:06:30.288Z,29.43
2023-05-16T15:11:33.138Z,29.49
2023-05-16T15:16:36.024Z,29.75
2023-05-16T15:21:39.005Z,29.78
2023-05-16T15:26:41.982Z,30.34
2023-05-16T15:31:44.798Z,30.66
2023-05-16T15:36:47.578Z,30.57
2023-05-16T15:42:09.297Z,30.40
2023-05-16T15:47:12.935Z,30.61
2023-05-16T15:52:15.711Z,30.65
2023-05-16T15:57:19.288Z,31.33
2023-05-16T16:02:22.001Z,31.60
2023-05-16T16:07:24.935Z,31.85
2023-05-16T16:12:29.998Z,32.18
2023-05-16T16:17:34.067Z,32.42
2023-05-16T16:22:36.868Z,32.78
2023-05-16T16:27:39.639Z,33.28
2023-05-16T16:32:42.452Z,33.79
2023-05-16T16:37:58.253Z,34.09
2023-05-16T16:43:08.763Z,34.45
2023-05-16T16:48:11.932Z,34.76
2023-05-16T16:53:14.837Z,35.51
2023-05-16T16:58:17.523Z,35.69
2023-05-16T17:03:21.463Z,36.12
2023-05-16T17:08:25.082Z,36.38
2023-05-16T17:13:33.768Z,36.80
2023-05-16T17:18:37.049Z,37.21
2023-05-16T17:23:41.708Z,37.72
2023-05-16T17:28:49.737Z,38.09
2023-05-16T17:33:53.503Z,38.45
2023-05-16T17:38:57.391Z,38.27
2023-05-16T17:44:00.172Z,38.67
2023-05-16T17:49:02.960Z,39.21
2023-05-16T17:54:06.573Z,39.64
2023-05-16T17:59:10.281Z,40.14
2023-05-16T18:04:13.439Z,40.67
2023-05-16T18:09:16.215Z,41.08
2023-05-16T18:14:19.293Z,41.75
2023-05-16T18:19:22.206Z,42.39
2023-05-16T18:24:25.409Z,43.10
2023-05-16T18:29:28.138Z,43.27
2023-05-16T18:34:31.675Z,43.36
2023-05-16T18:39:34.402Z,43.78
2023-05-16T18:44:37.565Z,43.93
2023-05-16T18:49:40.245Z,44.40
2023-05-16T18:54:42.939Z,44.47
2023-05-16T19:00:06.431Z,44.57
2023-05-16T19:05:21.734Z,45.21
2023-05-16T19:10:27.031Z,45.05
2023-05-16T19:15:30.102Z,45.30
2023-05-16T19:20:34.886Z,45.80
2023-05-16T19:25:37.747Z,45.88
2023-05-16T19:30:40.816Z,46.25
2023-05-16T19:35:43.508Z,46.26
2023-05-16T19:40:46.980Z,46.33
2023-05-16T19:45:50.019Z,45.94
2023-05-16T19:50:53.536Z,46.35
2023-05-16T19:55:56.537Z,46.30
2023-05-16T20:00:59.346Z,46.59
2023-05-16T20:06:26.989Z,47.10
2023-05-16T20:11:30.365Z,47.04
2023-05-16T20:16:33.159Z,47.55
2023-05-16T20:21:35.942Z,47.89
2023-05-16T20:26:38.755Z,48.22
2023-05-16T20:31:43.874Z,48.29
2023-05-16T20:36:46.647Z,49.08
2023-05-16T20:41:49.490Z,49.25
2023-05-16T20:46:52.439Z,49.88
2023-05-16T20:51:55.798Z,50.54
2023-05-16T20:56:58.671Z,51.00
2023-05-16T21:02:01.603Z,50.91
2023-05-16T21:07:06.842Z,51.14
2023-05-16T21:12:11.479Z,51.88
2023-05-16T21:17:14.773Z,52.03
2023-05-16T21:22:17.575Z,52.46
2023-05-16T21:27:20.377Z,52.72
2023-05-16T21:32:23.323Z,53.18
2023-05-16T21:37:26.120Z,53.20
2023-05-16T21:42:28.816Z,53.85
2023-05-16T21:47:31.610Z,54.24
2023-05-16T21:52:34.491Z,54.83
2023-05-16T21:57:37.317Z,54.68
2023-05-16T22:02:40.068Z,55.32
2023-05-16T22:07:43.038Z,55.86
2023-05-16T22:12:45.725Z,55.93
2023-05-16T22:17:48.629Z,56.31
2023-05-16T22:22:52.330Z,56.29
2023-05-16T22:27:55.017Z,56.70
2023-05-16T22:32:57.793Z,56.98
2023-05-16T22:38:00.836Z,57.15
2023-05-16T22:43:03.668Z,57.38
2023-05-16T22:48:06.642Z,57.37
2023-05-16T22:53:09.398Z,57.35
2023-05-16T22:58:12.102Z,57.54
2023-05-16T23:03:14.850Z,57.95
2023-05-16T23:08:17.554Z,58.50
2023-05-16T23:13:20.270Z,58.70
2023-05-16T23:18:23.178Z,58.92
2023-05-16T23:23:26.102Z,58.28
2023-05-16T23:28:28.823Z,58.21
2023-05-16T23:33:31.602Z,57.64
2023-05-16T23:38:34.297Z,57.81
2023-05-16T23:43:37.214Z,57.85
2023-05-16T23:48:40.169Z,57.86
2023-05-16T23:53:43.031Z,58.47
2023-05-16T23:58:45.790Z,58.19
